Time;durP1;ratioP1;P1;durP2;ratioP2;P2;SDS_P1;SDS_P2;PMS_P1;PMS_P2;Temp;Humidity;BMP_temperature;BMP_pressure;BME280_temperature;BME280_humidity;BME280_pressure;Samples;Min_cycle;Max_cycle;Signal;HPM_P1;HPM_P2
2023/01/21 00:01:14;;;;;;;26.88;14.65;;;;;;;-1.21;91.79;101873.78;6091830;23;20010;-71
2023/01/21 00:03:40;;;;;;;31.73;15.75;;;;;;;-1.20;91.85;101869.56;6090402;23;20022;-71
2023/01/21 00:06:06;;;;;;;27.52;13.52;;;;;;;-1.26;92.13;101877.72;6090987;23;20532;-71
2023/01/21 00:08:31;;;;;;;30.02;15.98;;;;;;;-1.31;92.12;101873.19;6091584;23;20025;-71
2023/01/21 00:11:04;;;;;;;32.42;15.77;;;;;;;-1.32;91.98;101879.91;6091337;23;20007;-70
2023/01/21 00:13:29;;;;;;;32.42;14.98;;;;;;;-1.36;92.47;101882.16;6094205;23;20006;-71
2023/01/21 00:15:55;;;;;;;28.67;15.75;;;;;;;-1.40;92.49;101885.34;6094171;23;20026;-71
2023/01/21 00:18:20;;;;;;;33.83;16.35;;;;;;;-1.43;92.56;101887.69;6090523;23;20018;-71
2023/01/21 00:20:45;;;;;;;29.38;15.30;;;;;;;-1.45;92.93;101896.84;6092428;23;20014;-70
2023/01/21 00:23:11;;;;;;;28.88;14.52;;;;;;;-1.50;93.05;101899.13;6091877;23;20101;-70
2023/01/21 00:25:37;;;;;;;28.80;15.35;;;;;;;-1.55;92.91;101908.16;6092604;23;20009;-71
2023/01/21 00:28:02;;;;;;;28.40;14.45;;;;;;;-1.58;92.97;101907.97;6091135;23;20033;-70
2023/01/21 00:30:29;;;;;;;30.13;15.80;;;;;;;-1.59;93.82;101912.16;6091181;23;20014;-70
2023/01/21 00:32:54;;;;;;;30.80;15.00;;;;;;;-1.60;93.76;101915.47;6089536;23;20022;-70
2023/01/21 00:35:20;;;;;;;31.65;15.82;;;;;;;-1.59;93.60;101913.81;6089671;23;20211;-70
2023/01/21 00:37:45;;;;;;;27.38;14.65;;;;;;;-1.62;94.10;101927.19;6090293;23;20011;-70
2023/01/21 00:40:11;;;;;;;29.25;14.73;;;;;;;-1.63;94.19;101927.97;6091533;23;20017;-71
2023/01/21 00:42:37;;;;;;;32.15;16.60;;;;;;;-1.64;94.04;101936.34;6090732;23;20018;-70
2023/01/21 00:45:02;;;;;;;26.38;13.50;;;;;;;-1.65;94.33;101936.25;6089972;23;20612;-71
2023/01/21 00:47:28;;;;;;;27.13;14.73;;;;;;;-1.69;93.86;101942.81;6092124;23;20683;-72
2023/01/21 00:49:53;;;;;;;31.38;16.05;;;;;;;-1.73;94.33;101937.47;6091786;23;20021;-70
2023/01/21 00:52:18;;;;;;;33.95;14.82;;;;;;;-1.84;94.07;101944.44;6091063;23;20065;-71
2023/01/21 00:54:44;;;;;;;33.28;16.27;;;;;;;-1.91;93.99;101943.97;6090853;23;20041;-70
2023/01/21 00:57:09;;;;;;;32.22;14.70;;;;;;;-1.98;94.34;101954.50;6091481;23;20018;-71
2023/01/21 00:59:35;;;;;;;31.83;14.15;;;;;;;-1.96;94.07;101956.34;6090551;23;20036;-70
2023/01/21 01:02:00;;;;;;;34.90;15.70;;;;;;;-1.92;94.38;101954.88;6090102;23;20054;-70
2023/01/21 01:04:25;;;;;;;32.30;16.35;;;;;;;-1.85;94.42;101962.09;6089411;23;20006;-71
2023/01/21 01:06:51;;;;;;;33.47;15.38;;;;;;;-1.78;94.97;101965.06;6064439;23;20018;-70
2023/01/21 01:09:16;;;;;;;28.50;15.23;;;;;;;-1.75;95.10;101974.50;6087781;23;20049;-70
2023/01/21 01:11:42;;;;;;;32.13;15.40;;;;;;;-1.72;95.21;101974.69;6088319;23;20518;-70
2023/01/21 01:14:07;;;;;;;34.90;14.18;;;;;;;-1.74;95.09;101981.34;6089469;23;20018;-70
2023/01/21 01:16:33;;;;;;;28.35;14.45;;;;;;;-1.73;94.84;101988.16;6091054;23;20034;-70
2023/01/21 01:18:58;;;;;;;33.67;15.23;;;;;;;-1.75;95.08;101990.59;6088927;23;20014;-69
2023/01/21 01:21:24;;;;;;;28.75;14.35;;;;;;;-1.76;94.80;101993.91;6089786;23;20466;-70
2023/01/21 01:23:51;;;;;;;24.05;13.27;;;;;;;-1.78;94.75;102000.53;6083795;23;20577;-70
2023/01/21 01:26:20;;;;;;;31.17;14.48;;;;;;;-1.75;94.60;101999.84;6091204;23;20018;-70
2023/01/21 01:28:47;;;;;;;25.05;12.63;;;;;;;-1.74;94.42;102006.69;6089956;23;20319;-71
2023/01/21 01:31:15;;;;;;;25.33;12.65;;;;;;;-1.70;93.80;102012.00;6090841;23;20042;-70
2023/01/21 01:33:40;;;;;;;25.27;13.73;;;;;;;-1.67;93.59;102013.88;6088270;23;20022;-69
2023/01/21 01:36:13;;;;;;;25.65;13.32;;;;;;;-1.67;93.08;102019.81;6090224;23;20022;-70
2023/01/21 01:38:38;;;;;;;27.85;12.65;;;;;;;-1.71;93.80;102015.34;6090035;23;20458;-71
2023/01/21 01:41:04;;;;;;;24.23;12.95;;;;;;;-1.73;93.34;102013.50;6090627;23;20085;-70
2023/01/21 01:44:00;;;;;;;26.63;12.85;;;;;;;-1.71;93.37;102033.09;6091197;23;19999;-70
2023/01/21 01:46:28;;;;;;;26.52;13.02;;;;;;;-1.72;93.37;102036.41;6090155;23;20053;-70
2023/01/21 01:49:00;;;;;;;22.83;12.13;;;;;;;-1.74;92.87;102050.66;6090862;23;20073;-70
2023/01/21 01:51:33;;;;;;;27.55;12.13;;;;;;;-1.73;93.36;102044.78;6090733;23;20525;-70
2023/01/21 01:53:59;;;;;;;25.08;12.50;;;;;;;-1.72;92.61;102046.53;6090783;23;20519;-70
2023/01/21 01:56:26;;;;;;;23.40;12.05;;;;;;;-1.67;91.88;102046.84;6091047;23;20025;-71
2023/01/21 01:58:52;;;;;;;25.08;11.82;;;;;;;-1.64;91.12;102049.56;6090036;23;20739;-70
2023/01/21 02:01:17;;;;;;;25.33;11.75;;;;;;;-1.69;91.74;102044.19;6091823;23;20102;-70
2023/01/21 02:03:49;;;;;;;22.25;11.95;;;;;;;-1.71;91.07;102053.38;6090124;23;20014;-70
2023/01/21 02:06:17;;;;;;;22.40;10.77;;;;;;;-1.75;92.01;102064.09;6089839;23;20014;-70
2023/01/21 02:08:47;;;;;;;27.00;11.50;;;;;;;-1.78;92.39;102066.44;6089778;23;20049;-70
2023/01/21 02:11:15;;;;;;;22.13;11.55;;;;;;;-1.82;92.44;102072.13;6089385;23;20361;-70
2023/01/21 02:13:45;;;;;;;20.08;11.55;;;;;;;-1.83;92.65;102072.88;6092071;23;20383;-70
2023/01/21 02:16:13;;;;;;;24.00;11.85;;;;;;;-1.84;92.68;102078.72;6090045;23;20018;-70
2023/01/21 02:18:58;;;;;;;26.05;12.85;;;;;;;-1.85;92.72;102077.00;6090454;23;20102;-70
2023/01/21 02:21:48;;;;;;;30.25;13.20;;;;;;;-1.86;93.07;102084.47;6091442;23;20077;-70
2023/01/21 02:24:51;;;;;;;25.42;13.32;;;;;;;-1.90;93.05;102080.00;6093323;23;20026;-70
2023/01/21 02:27:45;;;;;;;27.92;13.48;;;;;;;-1.91;93.19;102093.47;6090954;23;20018;-70
2023/01/21 02:30:36;;;;;;;21.55;12.25;;;;;;;-1.96;93.03;102094.81;6090512;23;20486;-70
2023/01/21 02:33:26;;;;;;;20.50;10.93;;;;;;;-2.04;93.30;102101.94;6091198;23;20447;-70
2023/01/21 02:36:04;;;;;;;24.85;12.57;;;;;;;-2.10;93.30;102094.84;6092974;23;20069;-69
2023/01/21 02:38:43;;;;;;;22.45;12.23;;;;;;;-2.10;93.20;102106.63;6092177;23;20026;-70
2023/01/21 02:41:32;;;;;;;20.08;11.50;;;;;;;-2.09;93.43;102113.44;6093250;23;20089;-69
2023/01/21 02:44:19;;;;;;;23.42;12.30;;;;;;;-2.11;93.56;102118.41;6093104;23;19998;-69
2023/01/21 02:47:13;;;;;;;23.63;12.35;;;;;;;-2.16;93.30;102116.38;6091709;23;20006;-70
2023/01/21 02:49:43;;;;;;;26.05;12.38;;;;;;;-2.19;93.95;102116.16;6092859;23;20006;-70
2023/01/21 02:52:17;;;;;;;25.27;13.05;;;;;;;-2.22;93.58;102119.38;6092943;23;20030;-69
2023/01/21 02:54:50;;;;;;;27.40;12.73;;;;;;;-2.30;93.03;102122.22;6092140;23;20015;-70
2023/01/21 02:57:25;;;;;;;22.15;12.63;;;;;;;-2.42;93.19;102129.88;6091167;23;20109;-69
2023/01/21 02:59:54;;;;;;;24.92;12.68;;;;;;;-2.50;92.94;102127.63;6090707;23;20019;-69
2023/01/21 03:02:50;;;;;;;23.35;11.90;;;;;;;-2.58;93.20;102129.66;6090801;23;20027;-69
2023/01/21 03:06:06;;;;;;;23.25;12.57;;;;;;;-2.63;93.42;102136.94;6082201;23;20263;-69
2023/01/21 03:08:45;;;;;;;23.75;12.23;;;;;;;-2.65;93.59;102133.41;6002533;23;20141;-73
2023/01/21 03:11:28;;;;;;;22.83;10.68;;;;;;;-2.67;93.69;102142.56;6004028;23;20802;-70
2023/01/21 03:17:02;;;;;;;22.83;11.35;;;;;;;-2.69;94.13;102146.66;6090439;23;20022;-70
2023/01/21 03:19:41;;;;;;;24.33;11.77;;;;;;;-2.71;93.77;102143.13;6091403;23;20313;-70
2023/01/21 03:22:28;;;;;;;22.58;10.48;;;;;;;-2.71;93.65;102153.25;6090210;23;20093;-70
2023/01/21 03:24:56;;;;;;;24.08;11.32;;;;;;;-2.73;94.37;102152.28;6091992;23;20026;-70
2023/01/21 03:27:25;;;;;;;27.02;12.82;;;;;;;-2.71;94.38;102154.94;6090760;23;20022;-70
2023/01/21 03:29:56;;;;;;;22.30;11.77;;;;;;;-2.70;94.24;102160.09;6091227;23;20327;-70
2023/01/21 03:32:25;;;;;;;19.95;11.00;;;;;;;-2.72;94.46;102156.59;6089828;23;20018;-70
2023/01/21 03:34:54;;;;;;;24.42;12.32;;;;;;;-2.71;94.60;102162.53;6090747;23;20006;-70
2023/01/21 03:37:31;;;;;;;24.10;12.25;;;;;;;-2.70;94.76;102164.25;6092265;23;20003;-70
2023/01/21 03:39:56;;;;;;;26.45;11.43;;;;;;;-2.71;94.49;102160.00;6089871;23;20026;-70
2023/01/21 03:42:22;;;;;;;25.40;11.45;;;;;;;-2.72;94.75;102164.19;6091103;23;20267;-70
2023/01/21 03:44:48;;;;;;;21.23;11.52;;;;;;;-2.76;94.45;102163.84;6090581;23;20022;-70
2023/01/21 03:47:31;;;;;;;26.60;11.80;;;;;;;-2.81;94.28;102166.09;6091709;23;20026;-70
2023/01/21 03:49:59;;;;;;;22.90;12.77;;;;;;;-2.91;94.16;102171.28;6090199;23;20006;-70
2023/01/21 03:52:25;;;;;;;21.52;10.95;;;;;;;-2.96;93.38;102170.13;6090908;23;20006;-70
2023/01/21 03:54:52;;;;;;;21.88;11.52;;;;;;;-3.01;94.00;102173.09;6091275;23;20101;-70
2023/01/21 03:57:18;;;;;;;23.98;11.95;;;;;;;-3.02;94.42;102176.41;6091084;23;20033;-70
2023/01/21 03:59:43;;;;;;;25.17;11.23;;;;;;;-3.05;94.58;102179.59;6089785;23;20066;-69
2023/01/21 04:02:09;;;;;;;23.10;12.85;;;;;;;-3.04;94.92;102181.38;6090842;23;20014;-70
2023/01/21 04:04:34;;;;;;;21.30;11.73;;;;;;;-3.01;94.66;102189.16;6091148;23;20044;-70
2023/01/21 04:07:00;;;;;;;29.05;12.57;;;;;;;-2.95;95.03;102184.53;6091276;23;20117;-68
2023/01/21 04:09:25;;;;;;;27.17;12.90;;;;;;;-2.90;95.13;102188.25;6089479;23;20025;-70
2023/01/21 04:11:51;;;;;;;32.30;12.07;;;;;;;-2.87;94.89;102190.97;6089316;23;20019;-70
2023/01/21 04:14:16;;;;;;;27.02;12.45;;;;;;;-2.84;95.09;102190.31;6091690;23;20544;-69
2023/01/21 04:16:41;;;;;;;26.45;12.48;;;;;;;-2.82;94.93;102194.69;6088922;23;20057;-69
2023/01/21 04:19:07;;;;;;;26.50;13.38;;;;;;;-2.83;94.77;102192.06;6084096;23;20144;-70
2023/01/21 04:21:33;;;;;;;27.42;13.18;;;;;;;-2.86;94.39;102191.84;6091479;23;20030;-70
2023/01/21 04:23:58;;;;;;;33.47;14.65;;;;;;;-2.89;94.78;102196.72;6091949;23;20063;-69
2023/01/21 04:26:24;;;;;;;36.25;15.23;;;;;;;-2.89;94.64;102201.78;6091150;23;20098;-69
2023/01/21 04:28:49;;;;;;;29.77;13.07;;;;;;;-2.90;94.46;102200.00;6089908;23;20010;-69
2023/01/21 04:31:14;;;;;;;33.55;14.38;;;;;;;-2.91;94.97;102204.19;6089639;23;20010;-70
2023/01/21 04:33:41;;;;;;;33.35;13.98;;;;;;;-2.92;94.57;102201.56;6090211;23;20276;-69
2023/01/21 04:36:06;;;;;;;26.52;13.80;;;;;;;-2.93;94.70;102203.22;6088521;23;20019;-69
2023/01/21 04:38:32;;;;;;;22.45;11.02;;;;;;;-2.95;94.97;102211.47;6090126;23;20022;-70
2023/01/21 04:40:57;;;;;;;23.88;11.80;;;;;;;-2.98;94.19;102212.13;6086965;23;20042;-70
2023/01/21 04:43:22;;;;;;;26.52;12.13;;;;;;;-3.01;94.85;102218.63;6091203;23;20011;-70
2023/01/21 04:45:49;;;;;;;29.50;12.00;;;;;;;-3.05;94.42;102231.84;6089160;23;20142;-70
2023/01/21 04:48:15;;;;;;;30.45;14.52;;;;;;;-3.09;94.38;102224.81;6088954;23;20431;-70
2023/01/21 04:50:40;;;;;;;26.73;12.57;;;;;;;-3.07;94.56;102226.69;6089010;23;20018;-70
2023/01/21 04:53:06;;;;;;;28.25;13.23;;;;;;;-3.05;94.58;102232.72;6090852;23;20030;-69
2023/01/21 04:55:32;;;;;;;26.35;13.48;;;;;;;-3.03;94.71;102240.38;6092073;23;20041;-69
2023/01/21 04:57:57;;;;;;;27.30;11.52;;;;;;;-3.00;94.70;102241.50;6088752;23;20021;-70
2023/01/21 05:00:23;;;;;;;26.50;12.35;;;;;;;-2.98;94.71;102254.25;6090884;23;20110;-70
2023/01/21 05:02:48;;;;;;;24.40;12.25;;;;;;;-2.97;94.74;102248.41;6092178;23;20038;-70
2023/01/21 05:05:13;;;;;;;24.55;12.30;;;;;;;-2.97;94.62;102256.88;6090885;23;20365;-70
2023/01/21 05:07:39;;;;;;;26.65;11.88;;;;;;;-2.98;94.90;102257.66;6091243;23;20355;-69
2023/01/21 05:10:04;;;;;;;27.33;12.20;;;;;;;-3.01;94.92;102256.56;6090360;23;20030;-69
2023/01/21 05:12:30;;;;;;;24.10;10.00;;;;;;;-3.01;94.78;102260.00;6090099;23;20073;-69
2023/01/21 05:14:58;;;;;;;19.60;10.02;;;;;;;-3.01;95.02;102265.03;6091594;23;20096;-69
2023/01/21 05:17:24;;;;;;;25.67;13.07;;;;;;;-3.03;94.68;102258.09;6090012;23;20022;-69
2023/01/21 05:19:51;;;;;;;20.02;10.52;;;;;;;-3.05;94.62;102265.59;6090464;23;20449;-69
2023/01/21 05:22:16;;;;;;;28.88;13.50;;;;;;;-3.08;94.55;102267.03;6090950;23;20003;-69
2023/01/21 05:24:42;;;;;;;27.73;12.77;;;;;;;-3.15;94.40;102269.91;6090016;23;20019;-70
2023/01/21 05:27:07;;;;;;;23.40;11.00;;;;;;;-3.21;94.13;102271.22;6090096;23;20050;-70
2023/01/21 05:29:33;;;;;;;21.58;11.90;;;;;;;-3.23;94.71;102271.88;6090297;23;20015;-71
2023/01/21 05:31:58;;;;;;;28.83;13.63;;;;;;;-3.27;94.74;102278.38;6090712;23;20011;-69
2023/01/21 05:34:24;;;;;;;27.25;12.48;;;;;;;-3.27;94.65;102278.38;6091356;23;20026;-70
2023/01/21 05:36:49;;;;;;;28.77;13.23;;;;;;;-3.28;94.64;102286.75;6091603;23;20347;-70
2023/01/21 05:39:14;;;;;;;27.50;11.90;;;;;;;-3.30;94.56;102284.84;6089933;23;20189;-69
2023/01/21 05:41:40;;;;;;;24.33;12.13;;;;;;;-3.34;94.58;102287.94;6083663;23;20026;-69
2023/01/21 05:44:09;;;;;;;26.83;13.85;;;;;;;-3.35;94.77;102298.81;6091524;23;20014;-69
2023/01/21 05:46:35;;;;;;;23.50;12.43;;;;;;;-3.39;94.41;102295.19;6091379;23;20014;-69
2023/01/21 05:49:01;;;;;;;22.02;11.23;;;;;;;-3.43;94.49;102300.81;6089585;23;20049;-69
2023/01/21 05:51:26;;;;;;;24.63;11.55;;;;;;;-3.48;94.23;102302.13;6083871;23;20022;-69
2023/01/21 05:53:51;;;;;;;22.02;12.00;;;;;;;-3.51;94.10;102301.03;6087868;23;20084;-69
2023/01/21 05:56:17;;;;;;;21.85;10.98;;;;;;;-3.52;94.24;102309.38;6090050;23;20021;-70
2023/01/21 05:58:42;;;;;;;22.52;10.90;;;;;;;-3.54;94.23;102309.25;6093114;23;20417;-69
2023/01/21 06:01:08;;;;;;;24.23;11.50;;;;;;;-3.55;94.11;102315.09;6093257;23;20034;-69
2023/01/21 06:03:34;;;;;;;26.90;11.98;;;;;;;-3.57;94.32;102311.56;6093110;23;20018;-70
2023/01/21 06:05:59;;;;;;;29.20;12.50;;;;;;;-3.56;94.31;102317.50;6091934;23;20018;-70
2023/01/21 06:08:25;;;;;;;28.67;13.38;;;;;;;-3.54;94.71;102321.03;6092967;23;20019;-70
2023/01/21 06:10:53;;;;;;;22.48;11.20;;;;;;;-3.52;94.82;102333.00;6093339;23;20608;-69
2023/01/21 06:13:19;;;;;;;22.52;12.30;;;;;;;-3.52;94.57;102333.00;6095158;23;20002;-69
2023/01/21 06:15:44;;;;;;;28.85;12.55;;;;;;;-3.53;94.71;102337.94;6092476;23;20484;-69
2023/01/21 06:18:09;;;;;;;24.25;12.02;;;;;;;-3.52;94.69;102338.06;6091921;23;20018;-69
2023/01/21 06:20:35;;;;;;;26.45;12.10;;;;;;;-3.55;94.83;102342.91;6092995;23;20014;-69
2023/01/21 06:23:02;;;;;;;27.98;12.88;;;;;;;-3.53;94.42;102346.41;6093098;23;20077;-69
2023/01/21 06:25:29;;;;;;;28.17;13.15;;;;;;;-3.51;95.04;102349.91;6092090;23;20002;-70
2023/01/21 06:27:55;;;;;;;27.60;12.35;;;;;;;-3.48;94.91;102352.66;6090728;23;20026;-71
2023/01/21 06:30:22;;;;;;;29.23;13.65;;;;;;;-3.46;94.85;102353.69;6092291;23;20088;-70
2023/01/21 06:32:47;;;;;;;26.67;12.95;;;;;;;-3.44;94.92;102357.19;6091253;23;20054;-69
2023/01/21 06:35:13;;;;;;;27.55;13.70;;;;;;;-3.42;94.89;102360.69;6091097;23;20014;-70
2023/01/21 06:37:38;;;;;;;25.45;11.65;;;;;;;-3.42;94.62;102362.38;6092198;23;20017;-69
2023/01/21 06:40:04;;;;;;;21.70;11.75;;;;;;;-3.45;94.88;102365.53;6092555;23;20023;-69
2023/01/21 06:42:30;;;;;;;27.13;12.18;;;;;;;-3.49;94.56;102365.19;6092393;23;20019;-69
2023/01/21 06:44:55;;;;;;;28.27;12.93;;;;;;;-3.54;94.62;102372.44;6093388;23;20027;-69
2023/01/21 06:47:20;;;;;;;26.20;12.18;;;;;;;-3.60;94.34;102381.22;6092126;23;20018;-70
2023/01/21 06:49:46;;;;;;;28.40;13.57;;;;;;;-3.68;94.21;102393.28;6090289;23;20014;-69
2023/01/21 06:52:11;;;;;;;25.02;12.57;;;;;;;-3.71;94.32;102400.63;6092390;23;20010;-70
2023/01/21 06:54:37;;;;;;;25.95;12.82;;;;;;;-3.77;94.38;102397.66;6091031;23;20023;-69
2023/01/21 06:57:02;;;;;;;25.73;12.85;;;;;;;-3.78;94.09;102399.28;6092058;23;20018;-69
2023/01/21 06:59:28;;;;;;;24.48;12.25;;;;;;;-3.78;94.33;102395.91;6091691;23;20014;-69
2023/01/21 07:01:53;;;;;;;31.23;14.48;;;;;;;-3.78;94.35;102393.38;6091670;23;20815;-65
2023/01/21 07:04:19;;;;;;;28.20;13.45;;;;;;;-3.79;94.55;102397.56;6091701;23;20006;-65
2023/01/21 07:06:44;;;;;;;20.77;11.52;;;;;;;-3.80;94.35;102397.41;6090654;23;20040;-65
2023/01/21 07:09:10;;;;;;;30.15;15.07;;;;;;;-3.80;94.24;102399.94;6091485;23;20022;-65
2023/01/21 07:11:35;;;;;;;25.98;12.60;;;;;;;-3.78;94.41;102404.34;6092301;23;20097;-66
2023/01/21 07:14:01;;;;;;;26.95;13.38;;;;;;;-3.74;94.58;102407.97;6090589;23;20007;-66
2023/01/21 07:16:26;;;;;;;28.90;13.02;;;;;;;-3.75;94.64;102407.09;6093277;23;20042;-66
2023/01/21 07:18:51;;;;;;;26.92;13.32;;;;;;;-3.77;94.71;102407.75;6091446;23;20022;-65
2023/01/21 07:21:17;;;;;;;31.15;14.05;;;;;;;-3.77;94.68;102410.28;6093243;23;20106;-66
2023/01/21 07:23:43;;;;;;;26.08;14.20;;;;;;;-3.83;94.40;102413.22;6093393;23;20344;-66
2023/01/21 07:26:09;;;;;;;31.27;14.15;;;;;;;-3.85;94.17;102416.41;6093867;23;20022;-66
2023/01/21 07:28:34;;;;;;;25.80;13.13;;;;;;;-3.89;94.52;102419.47;6093953;23;20014;-67
2023/01/21 07:31:02;;;;;;;28.05;14.70;;;;;;;-3.90;94.24;102426.19;6092451;23;20377;-66
2023/01/21 07:33:28;;;;;;;24.38;13.05;;;;;;;-3.89;94.24;102427.91;6091773;23;20458;-66
2023/01/21 07:35:54;;;;;;;24.63;12.02;;;;;;;-3.89;93.96;102427.91;6088894;23;20070;-66
2023/01/21 07:38:19;;;;;;;21.73;12.02;;;;;;;-3.85;94.07;102431.56;6089478;23;20026;-65
2023/01/21 07:40:48;;;;;;;25.75;12.35;;;;;;;-3.83;94.31;102435.06;6088278;23;20109;-66
2023/01/21 07:43:14;;;;;;;23.60;12.18;;;;;;;-3.81;94.42;102446.19;6090530;23;20315;-66
2023/01/21 07:45:40;;;;;;;29.02;14.32;;;;;;;-3.80;94.50;102447.94;6090187;23;20115;-65
2023/01/21 07:48:05;;;;;;;29.98;15.55;;;;;;;-3.74;94.44;102448.41;6091652;23;20074;-65
2023/01/21 07:50:31;;;;;;;28.92;14.20;;;;;;;-3.69;94.83;102454.72;6092409;23;20339;-66
2023/01/21 07:52:58;;;;;;;29.60;14.25;;;;;;;-3.63;94.77;102449.22;6092278;23;20457;-66
2023/01/21 07:55:24;;;;;;;28.27;14.52;;;;;;;-3.60;94.66;102446.94;6091840;23;20006;-66
2023/01/21 07:57:50;;;;;;;29.17;14.32;;;;;;;-3.56;95.40;102451.44;6093137;23;20022;-66
2023/01/21 08:00:16;;;;;;;35.15;15.60;;;;;;;-3.52;95.30;102446.72;6091701;23;20056;-66
2023/01/21 08:02:42;;;;;;;29.27;14.38;;;;;;;-3.46;95.26;102449.72;6092793;23;20019;-65
2023/01/21 08:05:08;;;;;;;26.58;12.63;;;;;;;-3.42;94.55;102453.34;6090390;23;20026;-65
2023/01/21 08:07:34;;;;;;;31.25;15.88;;;;;;;-3.41;94.88;102458.50;6092790;23;20085;-65
2023/01/21 08:10:00;;;;;;;30.98;14.90;;;;;;;-3.38;94.70;102458.75;6091552;23;20092;-65
2023/01/21 08:12:25;;;;;;;31.13;13.75;;;;;;;-3.35;94.70;102456.44;6092297;23;20046;-65
2023/01/21 08:14:51;;;;;;;28.38;13.00;;;;;;;-3.30;94.32;102465.22;6091457;23;20198;-65
2023/01/21 08:17:16;;;;;;;25.35;13.60;;;;;;;-3.30;93.99;102469.41;6092543;23;20022;-64
2023/01/21 08:19:42;;;;;;;25.88;14.15;;;;;;;-3.30;94.18;102477.00;6090852;23;20010;-64
2023/01/21 08:22:07;;;;;;;23.98;13.95;;;;;;;-3.30;93.64;102485.47;6092183;23;20021;-65
2023/01/21 08:24:33;;;;;;;27.15;14.48;;;;;;;-3.28;93.42;102483.06;6092288;23;20098;-65
2023/01/21 08:26:59;;;;;;;25.80;12.73;;;;;;;-3.27;93.48;102479.75;6092101;23;20093;-66
2023/01/21 08:29:25;;;;;;;25.70;13.95;;;;;;;-3.24;93.40;102483.38;6092105;23;20018;-65
2023/01/21 08:31:51;;;;;;;25.38;13.90;;;;;;;-3.22;93.35;102484.41;6092126;23;20342;-65
2023/01/21 08:34:17;;;;;;;26.13;14.32;;;;;;;-3.18;93.03;102485.47;6091489;23;20010;-65
2023/01/21 08:36:42;;;;;;;28.85;14.57;;;;;;;-3.14;93.06;102492.53;6090898;23;20547;-65
2023/01/21 08:39:11;;;;;;;29.00;14.40;;;;;;;-3.10;92.98;102502.13;6090993;23;20430;-65
2023/01/21 08:41:36;;;;;;;31.63;14.02;;;;;;;-3.06;93.20;102505.72;6091267;23;20031;-65
2023/01/21 08:44:02;;;;;;;26.00;14.90;;;;;;;-3.04;92.78;102505.09;6092495;23;20584;-65
2023/01/21 08:46:27;;;;;;;25.00;12.95;;;;;;;-3.01;92.54;102509.50;6092468;23;20148;-65
2023/01/21 08:48:52;;;;;;;23.85;12.77;;;;;;;-2.97;92.07;102504.75;6090731;23;20018;-65
2023/01/21 08:51:18;;;;;;;25.35;13.48;;;;;;;-2.92;92.22;102502.59;6091921;23;20023;-65
2023/01/21 08:53:43;;;;;;;25.02;12.73;;;;;;;-2.88;92.00;102509.63;6091671;23;20029;-66
2023/01/21 08:56:09;;;;;;;25.10;12.80;;;;;;;-2.86;92.37;102508.09;6092094;23;20042;-65
2023/01/21 08:58:34;;;;;;;22.48;12.38;;;;;;;-2.81;91.92;102506.78;6092594;23;20010;-66
2023/01/21 09:01:08;;;;;;;27.15;13.40;;;;;;;-2.78;91.92;102517.13;6090823;23;20030;-65
2023/01/21 09:03:33;;;;;;;27.88;13.27;;;;;;;-2.77;91.52;102508.75;6091829;23;20077;-65
2023/01/21 09:06:00;;;;;;;23.33;12.77;;;;;;;-2.75;91.37;102517.34;6081840;23;20406;-65
2023/01/21 09:08:26;;;;;;;25.55;12.77;;;;;;;-2.76;90.72;102513.91;6091916;23;20189;-65
2023/01/21 09:11:02;;;;;;;22.25;12.20;;;;;;;-2.72;91.20;102531.09;6090667;23;20393;-66
2023/01/21 09:13:30;;;;;;;31.52;15.05;;;;;;;-2.69;90.74;102535.50;6091092;23;20031;-65
2023/01/21 09:15:56;;;;;;;23.20;12.82;;;;;;;-2.65;90.75;102529.91;6092051;23;20101;-65
2023/01/21 09:18:22;;;;;;;24.95;12.82;;;;;;;-2.60;90.71;102530.22;6092108;23;20014;-65
2023/01/21 09:20:47;;;;;;;29.90;14.07;;;;;;;-2.58;90.59;102537.16;6090035;23;20022;-65
2023/01/21 09:23:26;;;;;;;25.80;13.27;;;;;;;-2.55;89.89;102539.00;6091379;23;20022;-65
2023/01/21 09:26:03;;;;;;;27.33;13.57;;;;;;;-2.51;89.82;102539.38;6092168;23;20010;-65
2023/01/21 09:28:31;;;;;;;26.40;14.00;;;;;;;-2.50;90.10;102541.09;6092862;23;20085;-65
2023/01/21 09:30:58;;;;;;;24.00;14.23;;;;;;;-2.44;90.04;102540.69;6092468;23;20405;-70
2023/01/21 09:33:24;;;;;;;29.80;14.60;;;;;;;-2.40;90.00;102543.53;6090745;23;20081;-70
2023/01/21 09:35:54;;;;;;;25.02;14.50;;;;;;;-2.35;89.82;102552.34;6090204;23;20682;-70
2023/01/21 09:38:20;;;;;;;22.45;13.70;;;;;;;-2.30;89.57;102553.56;6093055;23;20014;-70
2023/01/21 09:40:46;;;;;;;32.92;15.65;;;;;;;-2.23;89.64;102552.31;6092424;23;20025;-70
2023/01/21 09:43:27;;;;;;;26.40;14.63;;;;;;;-2.14;89.56;102560.56;6093661;23;20010;-70
2023/01/21 09:45:57;;;;;;;30.67;16.00;;;;;;;-2.06;89.86;102556.97;6092817;23;20458;-70
2023/01/21 09:48:35;;;;;;;26.75;14.30;;;;;;;-1.96;90.08;102555.91;6092521;23;20687;-70
2023/01/21 09:51:08;;;;;;;27.42;15.60;;;;;;;-1.84;89.95;102569.47;6092027;23;20339;-70
2023/01/21 09:53:55;;;;;;;30.63;16.13;;;;;;;-1.73;89.35;102563.50;6090435;23;20030;-70
2023/01/21 09:56:41;;;;;;;31.50;16.65;;;;;;;-1.63;89.47;102564.22;6092399;23;20022;-70
2023/01/21 09:59:21;;;;;;;33.38;17.80;;;;;;;-1.51;89.17;102572.69;6085858;23;20050;-70
2023/01/21 10:01:48;;;;;;;33.75;18.15;;;;;;;-1.40;89.42;102568.31;6087971;23;20025;-69
2023/01/21 10:04:29;;;;;;;34.65;18.20;;;;;;;-1.29;88.83;102566.53;6090224;23;20002;-70
2023/01/21 10:07:13;;;;;;;33.10;17.05;;;;;;;-1.19;89.60;102568.91;6092060;23;20487;-70
2023/01/21 10:09:51;;;;;;;35.03;17.15;;;;;;;-1.09;89.16;102574.72;6091370;23;20089;-70
2023/01/21 10:12:29;;;;;;;34.28;18.27;;;;;;;-1.02;88.55;102571.78;6091025;23;20105;-70
2023/01/21 10:15:29;;;;;;;37.78;19.38;;;;;;;-0.92;88.84;102580.00;6091613;23;20517;-72
2023/01/21 10:18:00;;;;;;;37.00;18.92;;;;;;;-0.84;88.82;102576.34;6091783;23;20015;-70
2023/01/21 10:20:52;;;;;;;35.25;15.38;;;;;;;-0.64;87.36;102574.34;6091843;23;20018;-70
2023/01/21 10:23:20;;;;;;;29.80;15.32;;;;;;;-0.44;87.14;102573.97;6092163;23;20026;-70
2023/01/21 10:25:48;;;;;;;25.27;14.15;;;;;;;-0.23;85.02;102571.91;6091650;23;20010;-70
2023/01/21 10:28:20;;;;;;;25.90;12.73;;;;;;;-0.08;84.66;102574.53;6092950;23;20011;-70
2023/01/21 10:30:50;;;;;;;29.48;14.20;;;;;;;0.04;84.10;102575.31;6090530;23;20022;-70
2023/01/21 10:33:24;;;;;;;30.60;14.80;;;;;;;0.26;83.63;102573.34;6089255;23;20463;-70
2023/01/21 10:36:32;;;;;;;28.20;13.40;;;;;;;0.37;81.76;102566.34;6091071;23;20462;-70
2023/01/21 10:39:34;;;;;;;30.20;13.52;;;;;;;0.56;82.04;102570.09;6078230;23;20093;-70
2023/01/21 10:42:08;;;;;;;25.90;12.80;;;;;;;0.58;80.87;102570.19;6091187;23;20027;-70
2023/01/21 10:44:47;;;;;;;35.77;16.10;;;;;;;0.54;80.72;102565.69;6093692;23;20014;-71
2023/01/21 10:47:29;;;;;;;48.50;19.73;;;;;;;0.52;81.12;102583.44;6092841;23;20073;-70
2023/01/21 10:50:29;;;;;;;32.67;16.33;;;;;;;0.54;80.79;102575.88;6085707;23;20010;-70
2023/01/21 10:53:21;;;;;;;27.30;14.85;;;;;;;0.63;80.62;102584.06;6016574;23;20046;-70
2023/01/21 10:55:54;;;;;;;28.13;14.55;;;;;;;0.69;79.92;102576.81;6093094;23;20109;-70
2023/01/21 10:58:47;;;;;;;30.55;16.35;;;;;;;0.70;80.32;102587.09;6093251;23;20003;-70
2023/01/21 11:01:39;;;;;;;31.92;18.35;;;;;;;0.76;79.56;102575.50;6092396;23;20025;-70
2023/01/21 11:04:12;;;;;;;27.10;13.90;;;;;;;0.76;78.99;102566.22;6081182;23;20082;-70
2023/01/21 11:06:39;;;;;;;30.50;14.43;;;;;;;0.77;79.75;102578.13;6088203;23;20070;-70
2023/01/21 11:09:08;;;;;;;33.47;15.90;;;;;;;0.84;79.82;102579.38;6091933;23;20092;-71
2023/01/21 11:11:35;;;;;;;29.58;15.63;;;;;;;0.79;79.84;102579.13;6092875;23;20682;-70
2023/01/21 11:14:01;;;;;;;28.90;17.30;;;;;;;0.78;79.41;102573.94;6091945;23;20138;-70
2023/01/21 11:16:34;;;;;;;23.02;13.82;;;;;;;0.73;79.32;102578.75;6092466;23;20438;-70
2023/01/21 11:19:01;;;;;;;25.58;13.88;;;;;;;0.75;79.45;102589.91;6091331;23;20022;-71
2023/01/21 11:21:26;;;;;;;26.25;14.70;;;;;;;0.78;80.03;102589.19;6092503;23;20026;-71
2023/01/21 11:23:54;;;;;;;31.42;15.02;;;;;;;0.80;79.90;102588.50;6091296;23;20025;-65